WESTPORT MEDIA Westport In The Media

Enter your "Place, State", US Zip Code or ICAO:  

Palma De Mallorca / Son San Juan, Spain

 Lat: 39.55N, Lon: 2.73E
ICAO Used: LEPA
Current Conditions
Updated: 3:00 AM GMT1 THU NOV 27 2014
Sun & Moon Information
Partly Cloudy
Partly Cloudy
Temp: 17°C
Humidity: 88%
Wind Speed: VRB1 MPH
Barometer: 1009 mb
Dewpoint: 15°C
Heat Index: 17°C
Wind Chill: 17°C
Civil Twilight: 7:14 AM GMT1 Moon Phase:
Waxing Crescent Moon
Sunrise: 7:43 AM GMT1
Sunset: 5:27 PM GMT1
Civil Twilight: 5:56 PM GMT1
Forecast for Palma De Mallorca / Son San Juan, Spain:
(Forecast based on TAF for )
0100 AM GMT1 THU NOV 27 2014
  
MORNING AFTERNOON EVENING OVERNIGHT
Fair Fair Fair Fair
ZoneCast:
Dated: 0100 AM GMT1 THU NOV 27 2014
Morning...Becoming fair with winds from the southeast at 9 mph.

Afternoon...Fair with winds from the southeast at 9 mph.

Evening...Fair with winds from the southeast at 9 mph.

Overnight...Fair with winds from the southeast at 9 mph.

Original Encoded TAF:
Dated: 0100 AM GMT1 THU NOV 27 2014
TAF LEPA 262300Z 2700/2724 VRB03KT 9999 SCT015 TX20/2713Z TN10/2706Z 
     PROB30 
     TEMPO 2700/2707 4000 BR BKN012 
     BECMG 2710/2712 12008KT 
     PROB40 
     TEMPO 2709/2724 FEW020CB BKN022